Stations météo

réclame
Mon MeteoGroup
Carrion de los Condes, Espagne (8068): Température de l'air & dewpoint: 11.12.2018 01:00:00 - 17.12.2018 01:00:00 (CET)Carrion de los Condes, Espagne (8068): Vitesse du vent & gusts: 11.12.2018 01:00:00 - 17.12.2018 01:00:00 (CET)Carrion de los Condes, Espagne (8068): Direction du vent: 11.12.2018 01:00:00 - 17.12.2018 01:00:00 (CET)Carrion de los Condes, Espagne (8068): visibility: 11.12.2018 01:00:00 - 17.12.2018 01:00:00 (CET)Carrion de los Condes, Espagne (8068): Ensoleillement: 11.12.2018 01:00:00 - 17.12.2018 01:00:00 (CET)Carrion de los Condes, Espagne (8068): Quantités de précipitations: 11.12.2018 01:00:00 - 17.12.2018 01:00:00 (CET)
Date & Time tt [°C] td [°C] ff [km/h] ff [knt] fx [km/h] fx [knt] dd vv [km] sd [min] rr [mm]
17.12.2018 01:00:00 0,4 -0,7 5 3 7 4 SW 20 0 -
17.12.2018 00:00:00 1,7 -0,5 2 1 17 9 NE 20 0 0,0
16.12.2018 23:00:00 2,1 -0,5 3 2 13 7 WSW 20 0 0,0
16.12.2018 22:00:00 3,0 0,0 3 2 10 6 E 20 0 0,0
16.12.2018 21:00:00 3,5 0,2 2 1 15 8 W 20 0 0,0
16.12.2018 20:00:00 3,7 0,4 3 2 20 11 W 20 0 0,0
16.12.2018 19:00:00 4,1 0,6 3 2 21 12 W 20 0 -
16.12.2018 18:00:00 5,3 1,1 6 4 22 12 WSW 20 0 0,0
16.12.2018 17:00:00 6,8 0,6 5 3 19 10 W 20 35 0,0
16.12.2018 16:00:00 9,4 1,7 6 4 23 12 W 20 17 0,0
16.12.2018 15:00:00 9,3 3,8 5 3 39 21 W 20 25 0,0
16.12.2018 14:00:00 10,8 4,3 7 4 34 18 WSW 20 35 0,2
16.12.2018 13:00:00 11,3 5,6 8 4 42 23 WSW 20 50 -
16.12.2018 12:00:00 10,5 6,2 13 7 40 22 WSW 20 53 0,0
16.12.2018 11:00:00 10,4 7,3 10 5 34 19 WSW 20 46 0,0
16.12.2018 10:00:00 8,6 7,7 15 8 40 21 SW 20 2 0,0
16.12.2018 09:00:00 8,2 7,8 16 8 33 18 SW 20 0 0,0
16.12.2018 08:00:00 8,5 8,3 8 4 31 17 SW 20 0 0,8
16.12.2018 07:00:00 8,5 8,3 12 6 28 15 SW 20 0 -
16.12.2018 06:00:00 8,5 8,3 11 6 36 19 SW 10 0 1,2
16.12.2018 05:00:00 8,2 7,8 13 7 39 21 SW 20 0 0,8
16.12.2018 04:00:00 8,0 7,6 14 7 33 18 SW 20 0 2,6
16.12.2018 03:00:00 7,9 7,4 13 7 32 18 SW 6 0 0,8
16.12.2018 02:00:00 8,0 7,4 16 8 35 19 SW 10 0 0,0
16.12.2018 01:00:00 8,2 7,6 14 8 33 18 SW 20 0 -
16.12.2018 00:00:00 8,5 7,8 19 10 41 22 SW 20 0 0,4
15.12.2018 23:00:00 8,6 7,8 17 9 39 21 SW 20 0 0,0
15.12.2018 22:00:00 8,5 7,6 18 10 45 24 SW 20 0 0,0
15.12.2018 21:00:00 8,6 7,4 16 9 38 21 SW 20 0 0,0
15.12.2018 20:00:00 8,7 7,6 17 9 39 21 SW 20 0 0,0
15.12.2018 19:00:00 8,8 7,7 16 9 35 19 SW 20 0 -
15.12.2018 18:00:00 8,9 7,8 20 11 37 20 SW 20 0 0,0
15.12.2018 17:00:00 9,2 7,7 13 7 39 21 SW 20 0 0,0
15.12.2018 16:00:00 9,3 7,3 19 10 40 22 SW 20 0 0,0
15.12.2018 15:00:00 9,0 8,3 18 10 39 21 SW 20 0 0,0
15.12.2018 14:00:00 8,4 8,0 14 7 40 22 SW 10 0 0,0
15.12.2018 13:00:00 8,3 8,0 16 9 39 21 SW 20 0 -
15.12.2018 12:00:00 7,4 7,1 12 6 28 15 SW 7 0 0,0
15.12.2018 11:00:00 7,1 6,8 10 5 24 13 SW 1,9 0 0,0
15.12.2018 10:00:00 6,7 6,4 11 6 28 15 SW 15 0 0,2
15.12.2018 09:00:00 6,4 6,1 9 5 24 13 SW 10 0 0,0
15.12.2018 08:00:00 6,3 5,9 12 7 23 12 SW 13 0 0,2
15.12.2018 07:00:00 6,1 5,8 10 6 22 12 SW 0,7 0 -
15.12.2018 06:00:00 5,8 5,3 9 5 18 10 SW 1,8 0 0,2
15.12.2018 05:00:00 5,7 5,3 9 5 21 11 SW 2,0 0 0,0
15.12.2018 04:00:00 5,5 5,0 4 2 19 10 WSW 15 0 0,0
15.12.2018 03:00:00 5,2 4,6 8 5 19 11 SW 17 0 0,0
15.12.2018 02:00:00 4,9 4,3 10 5 23 12 SW 15 0 0,0
15.12.2018 01:00:00 4,5 3,9 4 2 13 7 SW 20 0 -
15.12.2018 00:00:00 4,3 3,4 6 3 13 7 SW 20 0 0,0
14.12.2018 23:00:00 4,5 3,2 5 3 9 5 SW 20 0 0,0
14.12.2018 22:00:00 4,2 3,0 3 2 8 4 WSW 20 0 0,0
14.12.2018 21:00:00 4,2 3,2 5 3 14 7 WSW 20 0 0,0
14.12.2018 20:00:00 3,6 1,3 3 2 10 5 W 20 0 0,0
14.12.2018 19:00:00 4,6 1,9 2 1 11 6 WSW 20 0 -
14.12.2018 18:00:00 5,4 0,9 3 2 17 9 WSW 20 0 0,0
14.12.2018 17:00:00 7,9 1,5 3 2 16 9 WSW 20 41 0,0
14.12.2018 16:00:00 9,7 1,5 3 2 15 8 W 20 60 0,0
14.12.2018 15:00:00 9,4 1,5 7 4 16 8 W 20 60 0,0
14.12.2018 14:00:00 9,0 0,9 5 3 16 9 WNW 20 60 0,0
14.12.2018 13:00:00 8,5 2,3 6 3 15 8 W 20 60 -
14.12.2018 12:00:00 6,8 2,7 4 2 17 9 W 20 57 0,0
14.12.2018 11:00:00 5,0 2,1 5 3 12 7 W 20 60 0,0
14.12.2018 10:00:00 2,2 1,7 2 1 10 6 NW 20 60 0,0
14.12.2018 09:00:00 -0,6 -0,7 6 4 12 7 SW 20 1 0,0
14.12.2018 08:00:00 -0,7 -1,0 3 2 7 4 SSW 20 0 0,0
14.12.2018 07:00:00 -0,4 -0,5 2 1 10 5 NW 20 0 -
14.12.2018 06:00:00 -0,7 -1,0 3 1 13 7 WNW 20 0 0,0
14.12.2018 05:00:00 -0,8 -1,0 2 1 6 3 WNW 20 0 0,0
14.12.2018 04:00:00 -1,0 -1,2 2 1 5 3 NW 20 0 0,0
14.12.2018 03:00:00 -0,6 -1,0 1 1 8 4 SW 20 0 0,0
14.12.2018 02:00:00 -0,6 -1,0 2 1 6 3 S 20 0 0,0
14.12.2018 01:00:00 -0,3 -1,0 1 1 7 4 NW 20 0 -
14.12.2018 00:00:00 0,4 -0,3 2 1 16 9 WNW 20 0 0,0
13.12.2018 23:00:00 0,8 0,0 2 1 11 6 WNW 20 0 0,0
13.12.2018 22:00:00 1,0 -0,3 4 2 13 7 WSW 20 0 0,0
13.12.2018 21:00:00 1,2 -1,0 2 1 9 5 W 20 0 0,0
13.12.2018 20:00:00 2,4 -0,3 4 2 19 11 WNW 20 0 0,0
13.12.2018 19:00:00 2,9 -0,3 3 2 13 7 W 20 0 -
13.12.2018 18:00:00 5,0 -0,5 8 5 29 16 WNW 20 0 0,0
13.12.2018 17:00:00 6,2 -0,5 14 7 41 22 NW 20 5 0,0
13.12.2018 16:00:00 7,1 -0,5 17 9 40 21 NW 20 15 0,0
13.12.2018 15:00:00 7,4 2,3 10 5 24 13 WNW 20 21 0,0
13.12.2018 14:00:00 7,3 3,9 5 3 21 11 W 20 0 0,2
13.12.2018 13:00:00 7,6 3,8 6 4 18 10 WNW 19 0 -
13.12.2018 12:00:00 6,5 4,3 5 3 16 9 WNW 20 1 0,0
13.12.2018 11:00:00 5,6 4,6 4 2 19 10 W 20 0 0,0
13.12.2018 10:00:00 5,2 4,3 4 2 25 14 WSW 20 0 0,0
13.12.2018 09:00:00 5,4 4,5 3 1 21 11 WSW 20 0 0,2
13.12.2018 08:00:00 6,4 5,9 5 3 29 16 W 11 0 1,8
13.12.2018 07:00:00 7,0 6,7 15 8 32 18 SSW 20 0 -
13.12.2018 06:00:00 6,9 6,5 16 9 33 18 SSW 19 0 0,0
13.12.2018 05:00:00 6,3 5,9 11 6 23 12 SSW 2,7 0 0,0
13.12.2018 04:00:00 6,1 5,8 7 4 25 14 S 7 0 0,2
13.12.2018 03:00:00 6,2 5,9 14 8 29 16 SSW 4,7 0 1,2
13.12.2018 02:00:00 6,0 5,6 14 7 27 15 SSW 3,1 0 1,6
13.12.2018 01:00:00 6,0 5,6 13 7 29 16 SW 4,6 0 -
13.12.2018 00:00:00 6,0 5,6 14 8 26 14 SW 9 0 0,0
12.12.2018 23:00:00 5,8 5,5 13 7 24 13 SW 9 0 0,0
12.12.2018 22:00:00 5,6 5,3 10 5 21 12 SSW 6 0 0,0
12.12.2018 21:00:00 5,3 5,0 7 4 13 7 SSW 3,4 0 0,0
12.12.2018 20:00:00 4,8 4,5 3 2 9 5 WSW 0,8 0 0,0
12.12.2018 19:00:00 4,5 4,2 4 2 10 5 SW - 0 -
12.12.2018 18:00:00 4,2 3,9 4 2 16 9 S 4,9 0 0,0
12.12.2018 17:00:00 4,1 3,8 7 4 16 9 S 3,0 0 0,0
12.12.2018 16:00:00 4,3 3,9 4 2 12 6 WSW 6 0 0,0
12.12.2018 15:00:00 3,9 3,8 6 3 17 9 SW 4,1 0 0,0
12.12.2018 14:00:00 - - - - - - - - - -
12.12.2018 13:00:00 - - - - - - - - - -
12.12.2018 12:00:00 2,9 2,7 4 2 10 6 SSE 0,5 0 0,0
12.12.2018 11:00:00 3,1 3,0 4 2 12 6 SE 0,4 0 0,0
12.12.2018 10:00:00 2,8 2,7 2 1 9 5 E 0,2 0 0,0
12.12.2018 09:00:00 2,6 2,5 0 0 4 2 N 0,3 0 0,0
12.12.2018 08:00:00 2,3 2,1 1 1 6 4 SSE 0,2 0 0,0
12.12.2018 07:00:00 1,9 1,7 1 1 6 4 NE 0,3 0 -
12.12.2018 06:00:00 0,9 0,9 2 1 5 3 N 6 0 0,0
12.12.2018 05:00:00 -0,3 -0,5 1 1 4 2 NW 5 0 0,0
12.12.2018 04:00:00 0,1 0,0 3 2 5 3 N 3,4 0 0,0
12.12.2018 03:00:00 0,1 -0,3 2 1 8 4 NE 2,1 0 0,0
12.12.2018 02:00:00 0,7 0,4 4 2 8 5 NE 9 0 0,0
12.12.2018 01:00:00 -0,1 -0,5 2 1 6 3 ENE 4,7 0 -
12.12.2018 00:00:00 0,7 0,2 2 1 4 2 N 5 0 0,0
11.12.2018 23:00:00 1,3 0,6 1 1 3 2 NE 9 0 0,0
11.12.2018 22:00:00 2,4 1,7 1 1 5 3 N 10 0 0,0
11.12.2018 21:00:00 3,1 2,3 1 1 4 2 NNE 12 0 0,0
11.12.2018 20:00:00 3,9 2,5 1 1 16 9 NNE 11 0 0,0
11.12.2018 19:00:00 5,2 2,7 0 0 4 2 N 16 0 -
11.12.2018 18:00:00 6,9 3,4 4 2 8 4 WSW 20 0 0,0
11.12.2018 17:00:00 8,8 3,8 4 2 11 6 SW 20 0 0,0
11.12.2018 16:00:00 10,1 2,5 5 3 17 9 SW 20 38 0,0
11.12.2018 15:00:00 10,3 3,4 6 3 16 8 WSW 20 4 0,0
11.12.2018 14:00:00 9,6 3,0 8 4 15 8 SW 20 16 0,0
11.12.2018 13:00:00 8,5 4,3 7 4 13 7 SW 18 60 -
11.12.2018 12:00:00 5,2 4,3 3 2 8 4 SSW 15 55 0,0
11.12.2018 11:00:00 3,4 3,2 4 2 8 4 SW 13 44 0,0
11.12.2018 10:00:00 0,2 0,0 1 1 2 1 W 20 19 0,0
11.12.2018 09:00:00 -1,5 -1,7 0 0 3 1 N 13 0 0,0
11.12.2018 08:00:00 -1,7 -2,0 2 1 3 2 WNW 14 0 0,0
11.12.2018 07:00:00 -1,6 -1,7 1 1 12 7 NNW 10 0 -
11.12.2018 06:00:00 -1,8 -2,0 0 0 2 1 N 14 0 0,0
11.12.2018 05:00:00 -1,4 -1,4 1 1 2 1 N 12 0 0,0
11.12.2018 04:00:00 -1,5 -1,7 1 1 2 1 NNW 11 0 0,0
11.12.2018 03:00:00 -1,0 -1,2 0 0 3 1 N 10 0 0,0
11.12.2018 02:00:00 -0,5 -0,7 0 0 2 1 N 6 0 0,0
11.12.2018 01:00:00 -0,3 -0,7 0 0 3 2 N 9 0 -

tt = Température de l'air
td = dewpoint
ff = Vitesse du vent
fx = gusts
dd = Direction du vent
vv = visibility
sd = Ensoleillement
rr = Quantités de précipitations

stations d'obs. à proximité